sensor_id;sensor_type;location;lat;lon;timestamp;P1;durP1;ratioP1;P2;durP2;ratioP2
35975;SDS011;22055;0.000;0.000;2022-10-16T00:01:21;2.78;;;2.47;;
35975;SDS011;22055;0.000;0.000;2022-10-16T00:03:51;2.30;;;2.13;;
35975;SDS011;22055;0.000;0.000;2022-10-16T00:06:20;2.00;;;1.85;;
35975;SDS011;22055;0.000;0.000;2022-10-16T00:08:49;2.03;;;1.92;;
35975;SDS011;22055;0.000;0.000;2022-10-16T00:11:19;2.75;;;1.90;;
35975;SDS011;22055;0.000;0.000;2022-10-16T00:13:47;1.92;;;1.83;;
35975;SDS011;22055;0.000;0.000;2022-10-16T00:16:16;1.58;;;1.48;;
35975;SDS011;22055;0.000;0.000;2022-10-16T00:18:45;2.63;;;1.73;;
35975;SDS011;22055;0.000;0.000;2022-10-16T00:21:16;2.00;;;1.80;;
35975;SDS011;22055;0.000;0.000;2022-10-16T00:23:45;1.80;;;1.70;;
35975;SDS011;22055;0.000;0.000;2022-10-16T00:26:14;4.68;;;2.13;;
35975;SDS011;22055;0.000;0.000;2022-10-16T00:28:44;4.72;;;4.28;;
35975;SDS011;22055;0.000;0.000;2022-10-16T00:31:14;2.20;;;2.00;;
35975;SDS011;22055;0.000;0.000;2022-10-16T00:33:42;2.13;;;2.00;;
35975;SDS011;22055;0.000;0.000;2022-10-16T00:36:10;1.50;;;1.40;;
35975;SDS011;22055;0.000;0.000;2022-10-16T00:38:38;1.90;;;1.25;;
35975;SDS011;22055;0.000;0.000;2022-10-16T00:41:07;1.95;;;1.85;;
35975;SDS011;22055;0.000;0.000;2022-10-16T00:43:36;2.13;;;2.03;;
35975;SDS011;22055;0.000;0.000;2022-10-16T00:46:11;3.42;;;2.13;;
35975;SDS011;22055;0.000;0.000;2022-10-16T00:48:42;1.95;;;1.85;;
35975;SDS011;22055;0.000;0.000;2022-10-16T00:51:13;1.83;;;1.73;;
35975;SDS011;22055;0.000;0.000;2022-10-16T00:53:41;2.55;;;1.88;;
35975;SDS011;22055;0.000;0.000;2022-10-16T00:56:09;1.83;;;1.70;;
35975;SDS011;22055;0.000;0.000;2022-10-16T00:58:38;2.85;;;1.85;;
35975;SDS011;22055;0.000;0.000;2022-10-16T01:01:06;2.88;;;2.00;;
35975;SDS011;22055;0.000;0.000;2022-10-16T01:03:34;1.92;;;1.80;;
35975;SDS011;22055;0.000;0.000;2022-10-16T01:06:11;2.10;;;2.00;;
35975;SDS011;22055;0.000;0.000;2022-10-16T01:08:58;1.90;;;1.73;;
35975;SDS011;22055;0.000;0.000;2022-10-16T01:11:38;2.17;;;1.98;;
35975;SDS011;22055;0.000;0.000;2022-10-16T01:14:19;1.38;;;1.15;;
35975;SDS011;22055;0.000;0.000;2022-10-16T01:16:58;1.85;;;1.58;;
35975;SDS011;22055;0.000;0.000;2022-10-16T01:19:36;3.47;;;2.00;;
35975;SDS011;22055;0.000;0.000;2022-10-16T01:22:09;1.77;;;1.65;;
35975;SDS011;22055;0.000;0.000;2022-10-16T01:24:55;2.13;;;1.50;;
35975;SDS011;22055;0.000;0.000;2022-10-16T01:27:28;2.05;;;1.95;;
35975;SDS011;22055;0.000;0.000;2022-10-16T01:30:02;1.60;;;1.50;;
35975;SDS011;22055;0.000;0.000;2022-10-16T01:32:36;1.90;;;1.80;;
35975;SDS011;22055;0.000;0.000;2022-10-16T01:35:18;1.08;;;0.80;;
35975;SDS011;22055;0.000;0.000;2022-10-16T01:37:48;1.50;;;1.40;;
35975;SDS011;22055;0.000;0.000;2022-10-16T01:40:18;1.80;;;1.67;;
35975;SDS011;22055;0.000;0.000;2022-10-16T01:42:52;1.88;;;1.77;;
35975;SDS011;22055;0.000;0.000;2022-10-16T01:45:23;2.47;;;1.75;;
35975;SDS011;22055;0.000;0.000;2022-10-16T01:47:50;1.52;;;1.42;;
35975;SDS011;22055;0.000;0.000;2022-10-16T01:50:20;1.70;;;1.60;;
35975;SDS011;22055;0.000;0.000;2022-10-16T01:52:48;1.60;;;1.50;;
35975;SDS011;22055;0.000;0.000;2022-10-16T01:55:28;2.20;;;2.00;;
35975;SDS011;22055;0.000;0.000;2022-10-16T01:57:57;1.98;;;1.70;;
35975;SDS011;22055;0.000;0.000;2022-10-16T02:00:28;1.85;;;1.67;;
35975;SDS011;22055;0.000;0.000;2022-10-16T02:02:57;1.80;;;1.70;;
35975;SDS011;22055;0.000;0.000;2022-10-16T02:05:37;2.40;;;1.58;;
35975;SDS011;22055;0.000;0.000;2022-10-16T02:08:08;1.88;;;1.77;;
35975;SDS011;22055;0.000;0.000;2022-10-16T02:10:39;1.77;;;1.67;;
35975;SDS011;22055;0.000;0.000;2022-10-16T02:13:19;2.13;;;1.83;;
35975;SDS011;22055;0.000;0.000;2022-10-16T02:15:51;2.03;;;1.92;;
35975;SDS011;22055;0.000;0.000;2022-10-16T02:18:18;2.42;;;1.80;;
35975;SDS011;22055;0.000;0.000;2022-10-16T02:20:51;1.92;;;1.80;;
35975;SDS011;22055;0.000;0.000;2022-10-16T02:26:18;3.45;;;2.22;;
35975;SDS011;22055;0.000;0.000;2022-10-16T02:28:48;2.75;;;1.70;;
35975;SDS011;22055;0.000;0.000;2022-10-16T02:31:21;4.00;;;1.52;;
35975;SDS011;22055;0.000;0.000;2022-10-16T02:33:53;2.00;;;1.52;;
35975;SDS011;22055;0.000;0.000;2022-10-16T02:36:22;2.40;;;2.25;;
35975;SDS011;22055;0.000;0.000;2022-10-16T02:38:50;2.25;;;2.13;;
35975;SDS011;22055;0.000;0.000;2022-10-16T02:41:20;2.08;;;1.88;;
35975;SDS011;22055;0.000;0.000;2022-10-16T02:43:48;2.15;;;1.95;;
35975;SDS011;22055;0.000;0.000;2022-10-16T02:46:16;2.22;;;2.08;;
35975;SDS011;22055;0.000;0.000;2022-10-16T02:48:45;1.75;;;1.65;;
35975;SDS011;22055;0.000;0.000;2022-10-16T02:51:13;1.98;;;1.88;;
35975;SDS011;22055;0.000;0.000;2022-10-16T02:53:41;1.58;;;1.48;;
35975;SDS011;22055;0.000;0.000;2022-10-16T02:56:08;2.28;;;1.85;;
35975;SDS011;22055;0.000;0.000;2022-10-16T03:01:41;2.53;;;1.20;;
35975;SDS011;22055;0.000;0.000;2022-10-16T03:04:13;1.67;;;1.23;;
35975;SDS011;22055;0.000;0.000;2022-10-16T03:06:41;1.70;;;1.60;;
35975;SDS011;22055;0.000;0.000;2022-10-16T03:09:14;3.30;;;1.13;;
35975;SDS011;22055;0.000;0.000;2022-10-16T03:11:42;1.55;;;1.40;;
35975;SDS011;22055;0.000;0.000;2022-10-16T03:14:11;2.20;;;1.20;;
35975;SDS011;22055;0.000;0.000;2022-10-16T03:16:40;1.52;;;1.40;;
35975;SDS011;22055;0.000;0.000;2022-10-16T03:19:08;1.35;;;1.20;;
35975;SDS011;22055;0.000;0.000;2022-10-16T03:21:41;1.10;;;1.00;;
35975;SDS011;22055;0.000;0.000;2022-10-16T03:24:20;1.63;;;1.45;;
35975;SDS011;22055;0.000;0.000;2022-10-16T03:26:55;2.13;;;2.03;;
35975;SDS011;22055;0.000;0.000;2022-10-16T03:29:37;1.10;;;1.05;;
35975;SDS011;22055;0.000;0.000;2022-10-16T03:32:13;1.80;;;1.60;;
35975;SDS011;22055;0.000;0.000;2022-10-16T03:34:42;1.60;;;1.50;;
35975;SDS011;22055;0.000;0.000;2022-10-16T03:37:17;1.80;;;1.70;;
35975;SDS011;22055;0.000;0.000;2022-10-16T03:39:44;1.02;;;1.02;;
35975;SDS011;22055;0.000;0.000;2022-10-16T03:42:29;2.13;;;1.23;;
35975;SDS011;22055;0.000;0.000;2022-10-16T03:45:01;1.33;;;1.23;;
35975;SDS011;22055;0.000;0.000;2022-10-16T03:47:31;2.90;;;1.70;;
35975;SDS011;22055;0.000;0.000;2022-10-16T03:50:03;1.73;;;1.63;;
35975;SDS011;22055;0.000;0.000;2022-10-16T03:52:34;1.80;;;1.70;;
35975;SDS011;22055;0.000;0.000;2022-10-16T03:55:04;1.60;;;1.50;;
35975;SDS011;22055;0.000;0.000;2022-10-16T03:57:36;1.60;;;1.20;;
35975;SDS011;22055;0.000;0.000;2022-10-16T04:03:00;1.63;;;1.48;;
35975;SDS011;22055;0.000;0.000;2022-10-16T04:05:31;1.65;;;1.55;;
35975;SDS011;22055;0.000;0.000;2022-10-16T04:08:01;1.50;;;0.90;;
35975;SDS011;22055;0.000;0.000;2022-10-16T04:10:39;1.40;;;1.30;;
35975;SDS011;22055;0.000;0.000;2022-10-16T04:13:29;1.27;;;1.27;;
35975;SDS011;22055;0.000;0.000;2022-10-16T04:16:10;1.65;;;1.55;;
35975;SDS011;22055;0.000;0.000;2022-10-16T04:18:38;1.48;;;1.30;;
35975;SDS011;22055;0.000;0.000;2022-10-16T04:21:15;1.65;;;1.60;;
35975;SDS011;22055;0.000;0.000;2022-10-16T04:23:52;1.55;;;1.45;;
35975;SDS011;22055;0.000;0.000;2022-10-16T04:26:33;1.75;;;1.65;;
35975;SDS011;22055;0.000;0.000;2022-10-16T04:29:12;1.50;;;1.42;;
35975;SDS011;22055;0.000;0.000;2022-10-16T04:31:41;1.40;;;1.30;;
35975;SDS011;22055;0.000;0.000;2022-10-16T04:34:12;1.52;;;1.42;;
35975;SDS011;22055;0.000;0.000;2022-10-16T04:36:42;1.60;;;1.15;;
35975;SDS011;22055;0.000;0.000;2022-10-16T04:39:13;2.00;;;1.55;;
35975;SDS011;22055;0.000;0.000;2022-10-16T04:41:51;1.42;;;1.33;;
35975;SDS011;22055;0.000;0.000;2022-10-16T04:44:21;1.88;;;1.63;;
35975;SDS011;22055;0.000;0.000;2022-10-16T04:46:59;1.50;;;1.40;;
35975;SDS011;22055;0.000;0.000;2022-10-16T04:49:36;1.35;;;0.90;;
35975;SDS011;22055;0.000;0.000;2022-10-16T04:52:07;2.13;;;2.03;;
35975;SDS011;22055;0.000;0.000;2022-10-16T04:54:47;1.33;;;1.33;;
35975;SDS011;22055;0.000;0.000;2022-10-16T04:57:17;1.40;;;1.30;;
35975;SDS011;22055;0.000;0.000;2022-10-16T05:00:02;1.88;;;1.77;;
35975;SDS011;22055;0.000;0.000;2022-10-16T05:02:45;0.73;;;0.73;;
35975;SDS011;22055;0.000;0.000;2022-10-16T05:05:17;1.20;;;1.20;;
35975;SDS011;22055;0.000;0.000;2022-10-16T05:08:00;1.92;;;1.83;;
35975;SDS011;22055;0.000;0.000;2022-10-16T05:10:33;1.88;;;1.50;;
35975;SDS011;22055;0.000;0.000;2022-10-16T05:13:03;0.93;;;0.93;;
35975;SDS011;22055;0.000;0.000;2022-10-16T05:15:48;1.35;;;1.25;;
35975;SDS011;22055;0.000;0.000;2022-10-16T05:18:20;1.30;;;1.20;;
35975;SDS011;22055;0.000;0.000;2022-10-16T05:20:53;1.50;;;1.40;;
35975;SDS011;22055;0.000;0.000;2022-10-16T05:29:48;2.30;;;1.00;;
35975;SDS011;22055;0.000;0.000;2022-10-16T05:32:15;2.72;;;0.60;;
35975;SDS011;22055;0.000;0.000;2022-10-16T05:34:41;0.60;;;0.60;;
35975;SDS011;22055;0.000;0.000;2022-10-16T05:37:08;0.68;;;0.68;;
35975;SDS011;22055;0.000;0.000;2022-10-16T05:39:35;1.40;;;0.60;;
35975;SDS011;22055;0.000;0.000;2022-10-16T05:42:02;0.70;;;0.70;;
35975;SDS011;22055;0.000;0.000;2022-10-16T05:44:28;0.52;;;0.52;;
35975;SDS011;22055;0.000;0.000;2022-10-16T05:46:54;0.68;;;0.52;;
35975;SDS011;22055;0.000;0.000;2022-10-16T05:49:20;0.52;;;0.52;;
35975;SDS011;22055;0.000;0.000;2022-10-16T05:51:47;3.60;;;0.90;;
35975;SDS011;22055;0.000;0.000;2022-10-16T06:06:09;0.70;;;0.70;;
35975;SDS011;22055;0.000;0.000;2022-10-16T06:11:42;1.42;;;1.33;;
35975;SDS011;22055;0.000;0.000;2022-10-16T06:14:11;1.45;;;1.45;;
35975;SDS011;22055;0.000;0.000;2022-10-16T06:16:47;1.50;;;1.40;;
35975;SDS011;22055;0.000;0.000;2022-10-16T06:25:33;0.82;;;0.82;;
35975;SDS011;22055;0.000;0.000;2022-10-16T06:42:10;1.67;;;1.30;;
35975;SDS011;22055;0.000;0.000;2022-10-16T06:44:39;3.05;;;2.78;;
35975;SDS011;22055;0.000;0.000;2022-10-16T07:03:06;1.60;;;1.52;;
35975;SDS011;22055;0.000;0.000;2022-10-16T07:08:44;1.63;;;1.40;;
35975;SDS011;22055;0.000;0.000;2022-10-16T07:11:14;1.63;;;1.52;;
35975;SDS011;22055;0.000;0.000;2022-10-16T07:20:02;2.25;;;0.73;;
35975;SDS011;22055;0.000;0.000;2022-10-16T07:22:28;1.08;;;0.90;;
35975;SDS011;22055;0.000;0.000;2022-10-16T07:24:54;0.95;;;0.80;;
35975;SDS011;22055;0.000;0.000;2022-10-16T07:27:20;0.57;;;0.57;;
35975;SDS011;22055;0.000;0.000;2022-10-16T07:29:49;0.98;;;0.80;;
35975;SDS011;22055;0.000;0.000;2022-10-16T07:32:15;1.70;;;0.95;;
35975;SDS011;22055;0.000;0.000;2022-10-16T07:34:41;0.73;;;0.73;;
35975;SDS011;22055;0.000;0.000;2022-10-16T07:37:07;1.27;;;0.82;;
35975;SDS011;22055;0.000;0.000;2022-10-16T07:39:34;0.47;;;0.47;;
35975;SDS011;22055;0.000;0.000;2022-10-16T07:42:00;0.63;;;0.60;;
35975;SDS011;22055;0.000;0.000;2022-10-16T07:44:26;0.68;;;0.68;;
35975;SDS011;22055;0.000;0.000;2022-10-16T07:46:53;1.58;;;0.70;;
35975;SDS011;22055;0.000;0.000;2022-10-16T07:49:25;0.95;;;0.80;;
35975;SDS011;22055;0.000;0.000;2022-10-16T07:51:51;0.60;;;0.60;;
35975;SDS011;22055;0.000;0.000;2022-10-16T07:54:18;1.58;;;0.60;;
35975;SDS011;22055;0.000;0.000;2022-10-16T07:56:44;0.90;;;0.90;;
35975;SDS011;22055;0.000;0.000;2022-10-16T07:59:10;1.15;;;0.77;;
35975;SDS011;22055;0.000;0.000;2022-10-16T08:01:36;1.25;;;0.60;;
35975;SDS011;22055;0.000;0.000;2022-10-16T08:04:03;0.70;;;0.70;;
35975;SDS011;22055;0.000;0.000;2022-10-16T08:06:29;0.70;;;0.70;;
35975;SDS011;22055;0.000;0.000;2022-10-16T08:09:00;0.73;;;0.70;;
35975;SDS011;22055;0.000;0.000;2022-10-16T08:11:26;0.75;;;0.75;;
35975;SDS011;22055;0.000;0.000;2022-10-16T08:13:52;0.60;;;0.60;;
35975;SDS011;22055;0.000;0.000;2022-10-16T08:16:19;1.33;;;0.82;;
35975;SDS011;22055;0.000;0.000;2022-10-16T08:18:45;0.85;;;0.65;;
35975;SDS011;22055;0.000;0.000;2022-10-16T08:21:15;1.83;;;0.90;;
35975;SDS011;22055;0.000;0.000;2022-10-16T08:23:42;0.75;;;0.65;;
35975;SDS011;22055;0.000;0.000;2022-10-16T08:26:10;1.38;;;0.80;;
35975;SDS011;22055;0.000;0.000;2022-10-16T08:28:36;0.80;;;0.73;;
35975;SDS011;22055;0.000;0.000;2022-10-16T08:31:12;1.77;;;0.90;;
35975;SDS011;22055;0.000;0.000;2022-10-16T08:33:40;0.70;;;0.70;;
35975;SDS011;22055;0.000;0.000;2022-10-16T08:36:07;1.48;;;0.80;;
35975;SDS011;22055;0.000;0.000;2022-10-16T08:38:33;1.25;;;0.60;;
35975;SDS011;22055;0.000;0.000;2022-10-16T08:41:02;0.60;;;0.60;;
35975;SDS011;22055;0.000;0.000;2022-10-16T08:46:19;1.50;;;0.83;;
35975;SDS011;22055;0.000;0.000;2022-10-16T08:48:51;0.57;;;0.57;;
35975;SDS011;22055;0.000;0.000;2022-10-16T08:51:19;1.38;;;0.85;;
35975;SDS011;22055;0.000;0.000;2022-10-16T08:53:49;0.80;;;0.80;;
35975;SDS011;22055;0.000;0.000;2022-10-16T08:56:17;0.63;;;0.63;;
35975;SDS011;22055;0.000;0.000;2022-10-16T08:58:43;1.48;;;0.73;;
35975;SDS011;22055;0.000;0.000;2022-10-16T09:01:11;2.78;;;0.80;;
35975;SDS011;22055;0.000;0.000;2022-10-16T09:03:52;0.52;;;0.52;;
35975;SDS011;22055;0.000;0.000;2022-10-16T09:09:06;1.03;;;0.87;;
35975;SDS011;22055;0.000;0.000;2022-10-16T09:11:48;1.58;;;0.88;;
35975;SDS011;22055;0.000;0.000;2022-10-16T09:16:50;0.88;;;0.82;;
35975;SDS011;22055;0.000;0.000;2022-10-16T09:19:21;1.30;;;0.95;;
35975;SDS011;22055;0.000;0.000;2022-10-16T09:21:49;1.13;;;1.00;;
35975;SDS011;22055;0.000;0.000;2022-10-16T09:24:20;1.63;;;0.70;;
35975;SDS011;22055;0.000;0.000;2022-10-16T09:26:47;2.45;;;0.98;;
35975;SDS011;22055;0.000;0.000;2022-10-16T09:29:14;1.77;;;0.68;;
35975;SDS011;22055;0.000;0.000;2022-10-16T09:31:40;1.40;;;0.90;;
35975;SDS011;22055;0.000;0.000;2022-10-16T09:34:08;1.52;;;1.20;;
35975;SDS011;22055;0.000;0.000;2022-10-16T09:36:41;1.00;;;1.00;;
35975;SDS011;22055;0.000;0.000;2022-10-16T09:39:08;1.30;;;1.20;;
35975;SDS011;22055;0.000;0.000;2022-10-16T09:41:37;0.93;;;0.80;;
35975;SDS011;22055;0.000;0.000;2022-10-16T09:44:04;1.20;;;0.90;;
35975;SDS011;22055;0.000;0.000;2022-10-16T09:46:33;1.20;;;1.00;;
35975;SDS011;22055;0.000;0.000;2022-10-16T09:49:04;2.00;;;1.20;;
35975;SDS011;22055;0.000;0.000;2022-10-16T09:51:34;1.05;;;0.90;;
35975;SDS011;22055;0.000;0.000;2022-10-16T09:54:02;0.88;;;0.63;;
35975;SDS011;22055;0.000;0.000;2022-10-16T09:56:38;0.93;;;0.77;;
35975;SDS011;22055;0.000;0.000;2022-10-16T09:59:12;1.27;;;0.80;;
35975;SDS011;22055;0.000;0.000;2022-10-16T10:01:39;1.30;;;0.88;;
35975;SDS011;22055;0.000;0.000;2022-10-16T10:04:06;0.70;;;0.70;;
35975;SDS011;22055;0.000;0.000;2022-10-16T10:06:33;0.80;;;0.80;;
35975;SDS011;22055;0.000;0.000;2022-10-16T10:11:39;0.70;;;0.70;;
35975;SDS011;22055;0.000;0.000;2022-10-16T10:14:14;0.60;;;0.60;;
35975;SDS011;22055;0.000;0.000;2022-10-16T10:16:42;0.52;;;0.52;;
35975;SDS011;22055;0.000;0.000;2022-10-16T10:19:16;1.23;;;0.60;;
35975;SDS011;22055;0.000;0.000;2022-10-16T10:21:42;0.70;;;0.70;;
35975;SDS011;22055;0.000;0.000;2022-10-16T10:24:12;0.60;;;0.60;;
35975;SDS011;22055;0.000;0.000;2022-10-16T10:26:41;0.60;;;0.60;;
35975;SDS011;22055;0.000;0.000;2022-10-16T10:29:22;0.50;;;0.45;;
35975;SDS011;22055;0.000;0.000;2022-10-16T10:32:06;0.70;;;0.70;;
35975;SDS011;22055;0.000;0.000;2022-10-16T11:30:01;1.92;;;1.83;;
35975;SDS011;22055;0.000;0.000;2022-10-16T11:32:49;1.50;;;1.50;;
35975;SDS011;22055;0.000;0.000;2022-10-16T11:35:37;1.52;;;1.52;;
35975;SDS011;22055;0.000;0.000;2022-10-16T11:41:32;0.60;;;0.60;;
35975;SDS011;22055;0.000;0.000;2022-10-16T11:46:26;0.40;;;0.40;;
35975;SDS011;22055;0.000;0.000;2022-10-16T11:51:21;0.50;;;0.50;;
35975;SDS011;22055;0.000;0.000;2022-10-16T11:54:02;0.60;;;0.60;;
35975;SDS011;22055;0.000;0.000;2022-10-16T11:56:32;0.60;;;0.60;;
35975;SDS011;22055;0.000;0.000;2022-10-16T11:59:07;0.43;;;0.43;;
35975;SDS011;22055;0.000;0.000;2022-10-16T12:01:42;1.03;;;0.70;;
35975;SDS011;22055;0.000;0.000;2022-10-16T12:06:52;0.95;;;0.60;;
35975;SDS011;22055;0.000;0.000;2022-10-16T12:11:47;1.75;;;0.50;;
35975;SDS011;22055;0.000;0.000;2022-10-16T12:16:53;0.77;;;0.65;;
35975;SDS011;22055;0.000;0.000;2022-10-16T12:19:19;0.40;;;0.40;;
35975;SDS011;22055;0.000;0.000;2022-10-16T12:21:54;0.45;;;0.45;;
35975;SDS011;22055;0.000;0.000;2022-10-16T12:27:01;0.50;;;0.50;;
35975;SDS011;22055;0.000;0.000;2022-10-16T12:29:30;0.50;;;0.50;;
35975;SDS011;22055;0.000;0.000;2022-10-16T12:31:58;0.50;;;0.50;;
35975;SDS011;22055;0.000;0.000;2022-10-16T12:34:29;0.50;;;0.50;;
35975;SDS011;22055;0.000;0.000;2022-10-16T12:37:07;0.40;;;0.40;;
35975;SDS011;22055;0.000;0.000;2022-10-16T12:39:34;0.60;;;0.60;;
35975;SDS011;22055;0.000;0.000;2022-10-16T12:42:03;0.70;;;0.50;;
35975;SDS011;22055;0.000;0.000;2022-10-16T12:44:36;0.47;;;0.47;;
35975;SDS011;22055;0.000;0.000;2022-10-16T12:50:29;1.42;;;1.42;;
35975;SDS011;22055;0.000;0.000;2022-10-16T12:52:57;1.65;;;1.55;;
35975;SDS011;22055;0.000;0.000;2022-10-16T12:55:26;1.52;;;1.52;;
35975;SDS011;22055;0.000;0.000;2022-10-16T13:05:36;1.17;;;1.17;;
35975;SDS011;22055;0.000;0.000;2022-10-16T13:08:18;1.83;;;1.73;;
35975;SDS011;22055;0.000;0.000;2022-10-16T13:10:56;1.33;;;1.23;;
35975;SDS011;22055;0.000;0.000;2022-10-16T13:24:10;1.30;;;1.30;;
35975;SDS011;22055;0.000;0.000;2022-10-16T13:26:46;1.23;;;1.23;;
35975;SDS011;22055;0.000;0.000;2022-10-16T13:29:17;1.45;;;1.35;;
35975;SDS011;22055;0.000;0.000;2022-10-16T13:31:46;1.10;;;1.10;;
35975;SDS011;22055;0.000;0.000;2022-10-16T13:34:17;1.75;;;1.65;;
35975;SDS011;22055;0.000;0.000;2022-10-16T13:36:50;1.50;;;1.40;;
35975;SDS011;22055;0.000;0.000;2022-10-16T13:39:25;1.25;;;1.25;;
35975;SDS011;22055;0.000;0.000;2022-10-16T13:42:01;1.52;;;1.42;;
35975;SDS011;22055;0.000;0.000;2022-10-16T13:44:36;1.35;;;1.33;;
35975;SDS011;22055;0.000;0.000;2022-10-16T13:47:14;2.13;;;2.03;;
35975;SDS011;22055;0.000;0.000;2022-10-16T13:49:46;1.65;;;1.60;;
35975;SDS011;22055;0.000;0.000;2022-10-16T13:52:21;1.90;;;1.80;;
35975;SDS011;22055;0.000;0.000;2022-10-16T13:54:49;1.45;;;1.40;;
35975;SDS011;22055;0.000;0.000;2022-10-16T13:57:18;1.88;;;1.77;;
35975;SDS011;22055;0.000;0.000;2022-10-16T13:59:50;1.52;;;1.42;;
35975;SDS011;22055;0.000;0.000;2022-10-16T14:02:29;1.65;;;1.55;;
35975;SDS011;22055;0.000;0.000;2022-10-16T14:05:00;1.63;;;1.53;;
35975;SDS011;22055;0.000;0.000;2022-10-16T14:07:30;1.75;;;1.65;;
35975;SDS011;22055;0.000;0.000;2022-10-16T14:10:02;2.03;;;1.50;;
35975;SDS011;22055;0.000;0.000;2022-10-16T14:12:34;2.03;;;1.73;;
35975;SDS011;22055;0.000;0.000;2022-10-16T14:15:04;2.20;;;1.98;;
35975;SDS011;22055;0.000;0.000;2022-10-16T14:17:33;2.00;;;1.90;;
35975;SDS011;22055;0.000;0.000;2022-10-16T14:20:03;2.03;;;1.92;;
35975;SDS011;22055;0.000;0.000;2022-10-16T14:22:36;3.70;;;2.53;;
35975;SDS011;22055;0.000;0.000;2022-10-16T14:28:05;1.92;;;1.83;;
35975;SDS011;22055;0.000;0.000;2022-10-16T14:30:50;3.13;;;2.92;;
35975;SDS011;22055;0.000;0.000;2022-10-16T14:33:23;1.38;;;1.35;;
35975;SDS011;22055;0.000;0.000;2022-10-16T14:36:04;2.08;;;1.98;;
35975;SDS011;22055;0.000;0.000;2022-10-16T14:38:33;1.65;;;1.58;;
35975;SDS011;22055;0.000;0.000;2022-10-16T14:41:02;1.58;;;1.55;;
35975;SDS011;22055;0.000;0.000;2022-10-16T14:43:40;1.33;;;1.23;;
35975;SDS011;22055;0.000;0.000;2022-10-16T14:46:13;2.08;;;1.98;;
35975;SDS011;22055;0.000;0.000;2022-10-16T14:48:43;1.40;;;1.40;;
35975;SDS011;22055;0.000;0.000;2022-10-16T14:51:13;1.50;;;1.40;;
35975;SDS011;22055;0.000;0.000;2022-10-16T14:53:41;1.35;;;1.25;;
35975;SDS011;22055;0.000;0.000;2022-10-16T14:56:20;1.90;;;1.75;;
35975;SDS011;22055;0.000;0.000;2022-10-16T14:58:50;1.77;;;1.67;;
35975;SDS011;22055;0.000;0.000;2022-10-16T15:01:19;1.88;;;1.40;;
35975;SDS011;22055;0.000;0.000;2022-10-16T15:03:48;1.23;;;1.23;;
35975;SDS011;22055;0.000;0.000;2022-10-16T15:06:18;1.42;;;1.40;;
35975;SDS011;22055;0.000;0.000;2022-10-16T15:08:46;1.42;;;1.25;;
35975;SDS011;22055;0.000;0.000;2022-10-16T15:11:18;2.13;;;1.80;;
35975;SDS011;22055;0.000;0.000;2022-10-16T15:13:46;1.30;;;1.30;;
35975;SDS011;22055;0.000;0.000;2022-10-16T15:16:15;1.98;;;1.88;;
35975;SDS011;22055;0.000;0.000;2022-10-16T15:18:43;1.90;;;1.80;;
35975;SDS011;22055;0.000;0.000;2022-10-16T15:21:16;1.52;;;1.52;;
35975;SDS011;22055;0.000;0.000;2022-10-16T15:23:49;1.52;;;1.42;;
35975;SDS011;22055;0.000;0.000;2022-10-16T15:26:18;2.15;;;2.05;;
35975;SDS011;22055;0.000;0.000;2022-10-16T15:28:46;1.77;;;1.67;;
35975;SDS011;22055;0.000;0.000;2022-10-16T15:31:14;2.35;;;2.15;;
35975;SDS011;22055;0.000;0.000;2022-10-16T15:33:42;1.63;;;1.52;;
35975;SDS011;22055;0.000;0.000;2022-10-16T15:36:14;2.13;;;2.00;;
35975;SDS011;22055;0.000;0.000;2022-10-16T15:38:42;1.73;;;1.45;;
35975;SDS011;22055;0.000;0.000;2022-10-16T15:41:11;1.95;;;1.85;;
35975;SDS011;22055;0.000;0.000;2022-10-16T15:43:41;1.95;;;1.85;;
35975;SDS011;22055;0.000;0.000;2022-10-16T15:46:10;1.75;;;1.65;;
35975;SDS011;22055;0.000;0.000;2022-10-16T15:48:40;1.67;;;1.58;;
35975;SDS011;22055;0.000;0.000;2022-10-16T15:51:09;1.90;;;1.80;;
35975;SDS011;22055;0.000;0.000;2022-10-16T15:53:37;1.55;;;1.55;;
35975;SDS011;22055;0.000;0.000;2022-10-16T15:56:07;1.58;;;1.48;;
35975;SDS011;22055;0.000;0.000;2022-10-16T15:58:35;1.67;;;1.58;;
35975;SDS011;22055;0.000;0.000;2022-10-16T16:01:04;1.60;;;1.50;;
35975;SDS011;22055;0.000;0.000;2022-10-16T16:03:31;2.25;;;2.05;;
35975;SDS011;22055;0.000;0.000;2022-10-16T16:06:15;3.75;;;3.55;;
35975;SDS011;22055;0.000;0.000;2022-10-16T16:11:46;0.73;;;0.73;;
35975;SDS011;22055;0.000;0.000;2022-10-16T16:14:15;1.45;;;1.08;;
35975;SDS011;22055;0.000;0.000;2022-10-16T16:16:43;0.60;;;0.60;;
35975;SDS011;22055;0.000;0.000;2022-10-16T16:19:12;0.85;;;0.80;;
35975;SDS011;22055;0.000;0.000;2022-10-16T16:21:49;0.82;;;0.82;;
35975;SDS011;22055;0.000;0.000;2022-10-16T16:24:17;0.80;;;0.80;;
35975;SDS011;22055;0.000;0.000;2022-10-16T16:29:19;0.98;;;0.90;;
35975;SDS011;22055;0.000;0.000;2022-10-16T16:31:49;0.75;;;0.75;;
35975;SDS011;22055;0.000;0.000;2022-10-16T16:34:24;0.70;;;0.70;;
35975;SDS011;22055;0.000;0.000;2022-10-16T16:36:52;1.08;;;1.00;;
35975;SDS011;22055;0.000;0.000;2022-10-16T16:39:21;1.10;;;1.10;;
35975;SDS011;22055;0.000;0.000;2022-10-16T16:41:52;0.95;;;0.95;;
35975;SDS011;22055;0.000;0.000;2022-10-16T16:44:21;0.82;;;0.82;;
35975;SDS011;22055;0.000;0.000;2022-10-16T16:46:51;0.88;;;0.88;;
35975;SDS011;22055;0.000;0.000;2022-10-16T16:49:23;0.70;;;0.70;;
35975;SDS011;22055;0.000;0.000;2022-10-16T16:51:54;0.85;;;0.85;;
35975;SDS011;22055;0.000;0.000;2022-10-16T16:54:26;0.88;;;0.88;;
35975;SDS011;22055;0.000;0.000;2022-10-16T16:56:58;0.77;;;0.77;;
35975;SDS011;22055;0.000;0.000;2022-10-16T16:59:32;1.00;;;1.00;;
35975;SDS011;22055;0.000;0.000;2022-10-16T17:02:05;0.82;;;0.82;;
35975;SDS011;22055;0.000;0.000;2022-10-16T17:04:43;0.98;;;0.98;;
35975;SDS011;22055;0.000;0.000;2022-10-16T17:07:26;0.90;;;0.90;;
35975;SDS011;22055;0.000;0.000;2022-10-16T17:10:09;0.85;;;0.85;;
35975;SDS011;22055;0.000;0.000;2022-10-16T17:12:47;1.20;;;1.20;;
35975;SDS011;22055;0.000;0.000;2022-10-16T17:15:18;0.80;;;0.80;;
35975;SDS011;22055;0.000;0.000;2022-10-16T17:17:49;0.80;;;0.80;;
35975;SDS011;22055;0.000;0.000;2022-10-16T17:20:23;0.90;;;0.90;;
35975;SDS011;22055;0.000;0.000;2022-10-16T17:23:17;0.90;;;0.90;;
35975;SDS011;22055;0.000;0.000;2022-10-16T17:25:49;1.00;;;1.00;;
35975;SDS011;22055;0.000;0.000;2022-10-16T17:28:24;0.73;;;0.73;;
35975;SDS011;22055;0.000;0.000;2022-10-16T17:31:19;2.15;;;1.00;;
35975;SDS011;22055;0.000;0.000;2022-10-16T17:33:57;1.00;;;0.88;;
35975;SDS011;22055;0.000;0.000;2022-10-16T17:36:34;0.80;;;0.80;;
35975;SDS011;22055;0.000;0.000;2022-10-16T17:39:11;1.05;;;1.05;;
35975;SDS011;22055;0.000;0.000;2022-10-16T17:44:52;1.10;;;1.10;;
35975;SDS011;22055;0.000;0.000;2022-10-16T17:47:49;1.05;;;1.00;;
35975;SDS011;22055;0.000;0.000;2022-10-16T17:50:21;0.90;;;0.90;;
35975;SDS011;22055;0.000;0.000;2022-10-16T17:52:59;1.10;;;1.10;;
35975;SDS011;22055;0.000;0.000;2022-10-16T17:56:04;1.48;;;1.38;;
35975;SDS011;22055;0.000;0.000;2022-10-16T17:59:05;1.15;;;1.13;;
35975;SDS011;22055;0.000;0.000;2022-10-16T18:02:08;1.23;;;1.15;;
35975;SDS011;22055;0.000;0.000;2022-10-16T18:05:18;1.02;;;0.93;;
35975;SDS011;22055;0.000;0.000;2022-10-16T18:08:00;1.40;;;1.33;;
35975;SDS011;22055;0.000;0.000;2022-10-16T18:13:31;3.42;;;3.22;;
35975;SDS011;22055;0.000;0.000;2022-10-16T18:16:04;3.08;;;2.88;;
35975;SDS011;22055;0.000;0.000;2022-10-16T18:18:33;3.10;;;2.97;;
35975;SDS011;22055;0.000;0.000;2022-10-16T18:21:01;4.32;;;4.13;;
35975;SDS011;22055;0.000;0.000;2022-10-16T18:23:31;3.50;;;3.30;;
35975;SDS011;22055;0.000;0.000;2022-10-16T18:26:03;3.83;;;3.63;;
35975;SDS011;22055;0.000;0.000;2022-10-16T18:28:32;3.03;;;2.90;;
35975;SDS011;22055;0.000;0.000;2022-10-16T18:31:04;3.60;;;3.40;;
35975;SDS011;22055;0.000;0.000;2022-10-16T18:33:34;2.78;;;2.67;;
35975;SDS011;22055;0.000;0.000;2022-10-16T18:36:04;3.00;;;2.83;;
35975;SDS011;22055;0.000;0.000;2022-10-16T18:38:37;2.88;;;2.78;;
35975;SDS011;22055;0.000;0.000;2022-10-16T18:41:06;3.35;;;3.15;;
35975;SDS011;22055;0.000;0.000;2022-10-16T18:43:34;3.72;;;3.53;;
35975;SDS011;22055;0.000;0.000;2022-10-16T18:46:07;2.60;;;2.50;;